sensor_id;sensor_type;location;lat;lon;timestamp;P1;durP1;ratioP1;P2;durP2;ratioP2
8279;SDS011;8335;42.646;23.380;2022-11-14T00:00:22;23.20;;;12.77;;
8279;SDS011;8335;42.646;23.380;2022-11-14T00:02:49;21.07;;;12.63;;
8279;SDS011;8335;42.646;23.380;2022-11-14T00:05:15;20.77;;;12.73;;
8279;SDS011;8335;42.646;23.380;2022-11-14T00:07:44;20.10;;;12.53;;
8279;SDS011;8335;42.646;23.380;2022-11-14T00:10:11;19.37;;;12.20;;
8279;SDS011;8335;42.646;23.380;2022-11-14T00:12:38;18.77;;;12.50;;
8279;SDS011;8335;42.646;23.380;2022-11-14T00:15:06;18.93;;;12.20;;
8279;SDS011;8335;42.646;23.380;2022-11-14T00:17:34;19.17;;;12.40;;
8279;SDS011;8335;42.646;23.380;2022-11-14T00:20:00;20.57;;;12.57;;
8279;SDS011;8335;42.646;23.380;2022-11-14T00:22:27;21.30;;;12.87;;
8279;SDS011;8335;42.646;23.380;2022-11-14T00:24:55;21.73;;;13.57;;
8279;SDS011;8335;42.646;23.380;2022-11-14T00:27:22;22.87;;;12.90;;
8279;SDS011;8335;42.646;23.380;2022-11-14T00:29:49;19.20;;;12.03;;
8279;SDS011;8335;42.646;23.380;2022-11-14T00:32:16;20.00;;;12.73;;
8279;SDS011;8335;42.646;23.380;2022-11-14T00:34:44;20.37;;;12.37;;
8279;SDS011;8335;42.646;23.380;2022-11-14T00:37:10;20.43;;;12.10;;
8279;SDS011;8335;42.646;23.380;2022-11-14T00:39:37;20.60;;;12.17;;
8279;SDS011;8335;42.646;23.380;2022-11-14T00:42:05;21.53;;;11.73;;
8279;SDS011;8335;42.646;23.380;2022-11-14T00:44:32;22.47;;;12.80;;
8279;SDS011;8335;42.646;23.380;2022-11-14T00:46:59;18.77;;;11.80;;
8279;SDS011;8335;42.646;23.380;2022-11-14T00:49:26;26.57;;;14.73;;
8279;SDS011;8335;42.646;23.380;2022-11-14T00:51:52;22.37;;;13.47;;
8279;SDS011;8335;42.646;23.380;2022-11-14T00:54:19;23.83;;;15.03;;
8279;SDS011;8335;42.646;23.380;2022-11-14T00:56:46;36.43;;;18.83;;
8279;SDS011;8335;42.646;23.380;2022-11-14T00:59:15;30.20;;;17.47;;
8279;SDS011;8335;42.646;23.380;2022-11-14T01:01:41;36.73;;;19.90;;
8279;SDS011;8335;42.646;23.380;2022-11-14T01:04:08;36.97;;;19.73;;
8279;SDS011;8335;42.646;23.380;2022-11-14T01:06:35;43.80;;;23.63;;
8279;SDS011;8335;42.646;23.380;2022-11-14T01:09:01;40.50;;;21.13;;
8279;SDS011;8335;42.646;23.380;2022-11-14T01:11:28;30.67;;;17.17;;
8279;SDS011;8335;42.646;23.380;2022-11-14T01:13:55;28.30;;;15.87;;
8279;SDS011;8335;42.646;23.380;2022-11-14T01:16:23;24.23;;;13.97;;
8279;SDS011;8335;42.646;23.380;2022-11-14T01:18:50;24.17;;;14.10;;
8279;SDS011;8335;42.646;23.380;2022-11-14T01:21:17;24.37;;;13.97;;
8279;SDS011;8335;42.646;23.380;2022-11-14T01:23:44;23.33;;;13.57;;
8279;SDS011;8335;42.646;23.380;2022-11-14T01:26:11;20.67;;;11.70;;
8279;SDS011;8335;42.646;23.380;2022-11-14T01:28:39;19.80;;;12.60;;
8279;SDS011;8335;42.646;23.380;2022-11-14T01:31:07;20.43;;;11.60;;
8279;SDS011;8335;42.646;23.380;2022-11-14T01:33:36;21.20;;;12.20;;
8279;SDS011;8335;42.646;23.380;2022-11-14T01:36:04;20.03;;;12.10;;
8279;SDS011;8335;42.646;23.380;2022-11-14T01:38:31;22.73;;;12.40;;
8279;SDS011;8335;42.646;23.380;2022-11-14T01:40:58;22.23;;;13.03;;
8279;SDS011;8335;42.646;23.380;2022-11-14T01:43:26;17.10;;;11.20;;
8279;SDS011;8335;42.646;23.380;2022-11-14T01:45:56;17.57;;;11.10;;
8279;SDS011;8335;42.646;23.380;2022-11-14T01:48:25;18.17;;;11.87;;
8279;SDS011;8335;42.646;23.380;2022-11-14T01:50:59;19.93;;;12.10;;
8279;SDS011;8335;42.646;23.380;2022-11-14T01:53:28;18.90;;;11.50;;
8279;SDS011;8335;42.646;23.380;2022-11-14T01:55:57;22.07;;;13.73;;
8279;SDS011;8335;42.646;23.380;2022-11-14T01:58:27;23.43;;;12.57;;
8279;SDS011;8335;42.646;23.380;2022-11-14T02:00:54;21.93;;;12.53;;
8279;SDS011;8335;42.646;23.380;2022-11-14T02:03:22;23.53;;;13.40;;
8279;SDS011;8335;42.646;23.380;2022-11-14T02:05:49;20.87;;;12.20;;
8279;SDS011;8335;42.646;23.380;2022-11-14T02:08:18;21.03;;;12.87;;
8279;SDS011;8335;42.646;23.380;2022-11-14T02:10:46;20.57;;;12.63;;
8279;SDS011;8335;42.646;23.380;2022-11-14T02:13:13;22.30;;;12.97;;
8279;SDS011;8335;42.646;23.380;2022-11-14T02:15:40;20.67;;;13.27;;
8279;SDS011;8335;42.646;23.380;2022-11-14T02:18:07;23.63;;;14.87;;
8279;SDS011;8335;42.646;23.380;2022-11-14T02:20:36;25.03;;;14.87;;
8279;SDS011;8335;42.646;23.380;2022-11-14T02:23:07;25.17;;;14.90;;
8279;SDS011;8335;42.646;23.380;2022-11-14T02:25:35;23.40;;;13.73;;
8279;SDS011;8335;42.646;23.380;2022-11-14T02:28:02;23.17;;;13.13;;
8279;SDS011;8335;42.646;23.380;2022-11-14T02:30:30;22.37;;;13.60;;
8279;SDS011;8335;42.646;23.380;2022-11-14T02:32:57;22.90;;;13.90;;
8279;SDS011;8335;42.646;23.380;2022-11-14T02:35:24;25.13;;;14.37;;
8279;SDS011;8335;42.646;23.380;2022-11-14T02:37:52;24.30;;;14.73;;
8279;SDS011;8335;42.646;23.380;2022-11-14T02:40:19;22.83;;;13.73;;
8279;SDS011;8335;42.646;23.380;2022-11-14T02:42:46;21.90;;;13.97;;
8279;SDS011;8335;42.646;23.380;2022-11-14T02:45:13;24.47;;;12.77;;
8279;SDS011;8335;42.646;23.380;2022-11-14T02:47:40;21.30;;;12.83;;
8279;SDS011;8335;42.646;23.380;2022-11-14T02:50:07;22.93;;;13.23;;
8279;SDS011;8335;42.646;23.380;2022-11-14T02:52:34;17.43;;;11.27;;
8279;SDS011;8335;42.646;23.380;2022-11-14T02:55:02;17.80;;;11.03;;
8279;SDS011;8335;42.646;23.380;2022-11-14T02:57:29;17.47;;;11.17;;
8279;SDS011;8335;42.646;23.380;2022-11-14T02:59:56;18.77;;;11.77;;
8279;SDS011;8335;42.646;23.380;2022-11-14T03:02:23;25.77;;;15.00;;
8279;SDS011;8335;42.646;23.380;2022-11-14T03:04:50;35.43;;;21.80;;
8279;SDS011;8335;42.646;23.380;2022-11-14T03:07:16;36.90;;;22.33;;
8279;SDS011;8335;42.646;23.380;2022-11-14T03:09:43;40.43;;;22.57;;
8279;SDS011;8335;42.646;23.380;2022-11-14T03:12:14;40.00;;;21.60;;
8279;SDS011;8335;42.646;23.380;2022-11-14T03:14:41;45.50;;;25.40;;
8279;SDS011;8335;42.646;23.380;2022-11-14T03:17:08;142.57;;;28.83;;
8279;SDS011;8335;42.646;23.380;2022-11-14T03:19:35;152.83;;;28.03;;
8279;SDS011;8335;42.646;23.380;2022-11-14T03:22:02;127.50;;;27.80;;
8279;SDS011;8335;42.646;23.380;2022-11-14T03:24:29;205.73;;;31.30;;
8279;SDS011;8335;42.646;23.380;2022-11-14T03:26:56;124.07;;;28.97;;
8279;SDS011;8335;42.646;23.380;2022-11-14T03:29:24;254.23;;;34.77;;
8279;SDS011;8335;42.646;23.380;2022-11-14T03:31:50;227.83;;;34.30;;
8279;SDS011;8335;42.646;23.380;2022-11-14T03:34:17;196.83;;;37.07;;
8279;SDS011;8335;42.646;23.380;2022-11-14T03:36:44;168.07;;;33.60;;
8279;SDS011;8335;42.646;23.380;2022-11-14T03:39:11;288.87;;;36.53;;
8279;SDS011;8335;42.646;23.380;2022-11-14T03:41:38;136.23;;;33.67;;
8279;SDS011;8335;42.646;23.380;2022-11-14T03:44:04;269.17;;;36.30;;
8279;SDS011;8335;42.646;23.380;2022-11-14T03:46:32;190.03;;;33.53;;
8279;SDS011;8335;42.646;23.380;2022-11-14T03:48:59;209.43;;;33.90;;
8279;SDS011;8335;42.646;23.380;2022-11-14T03:51:26;211.13;;;33.53;;
8279;SDS011;8335;42.646;23.380;2022-11-14T03:53:53;238.50;;;34.17;;
8279;SDS011;8335;42.646;23.380;2022-11-14T03:56:19;91.57;;;28.57;;
8279;SDS011;8335;42.646;23.380;2022-11-14T03:58:46;93.10;;;27.63;;
8279;SDS011;8335;42.646;23.380;2022-11-14T04:01:13;155.47;;;31.03;;
8279;SDS011;8335;42.646;23.380;2022-11-14T04:03:41;110.30;;;28.80;;
8279;SDS011;8335;42.646;23.380;2022-11-14T04:06:08;151.07;;;28.00;;
8279;SDS011;8335;42.646;23.380;2022-11-14T04:08:34;144.03;;;28.67;;
8279;SDS011;8335;42.646;23.380;2022-11-14T04:11:01;121.03;;;27.30;;
8279;SDS011;8335;42.646;23.380;2022-11-14T04:13:28;54.63;;;26.57;;
8279;SDS011;8335;42.646;23.380;2022-11-14T04:15:55;50.17;;;26.10;;
8279;SDS011;8335;42.646;23.380;2022-11-14T04:18:22;41.00;;;22.47;;
8279;SDS011;8335;42.646;23.380;2022-11-14T04:20:51;42.17;;;21.47;;
8279;SDS011;8335;42.646;23.380;2022-11-14T04:23:18;45.07;;;22.80;;
8279;SDS011;8335;42.646;23.380;2022-11-14T04:25:45;61.17;;;24.17;;
8279;SDS011;8335;42.646;23.380;2022-11-14T04:28:12;48.23;;;22.30;;
8279;SDS011;8335;42.646;23.380;2022-11-14T04:30:40;48.30;;;21.70;;
8279;SDS011;8335;42.646;23.380;2022-11-14T04:33:09;43.57;;;22.63;;
8279;SDS011;8335;42.646;23.380;2022-11-14T04:35:35;41.60;;;20.73;;
8279;SDS011;8335;42.646;23.380;2022-11-14T04:38:04;47.17;;;21.43;;
8279;SDS011;8335;42.646;23.380;2022-11-14T04:40:30;49.70;;;22.07;;
8279;SDS011;8335;42.646;23.380;2022-11-14T04:42:57;47.43;;;20.40;;
8279;SDS011;8335;42.646;23.380;2022-11-14T04:45:24;46.20;;;19.13;;
8279;SDS011;8335;42.646;23.380;2022-11-14T04:47:51;41.03;;;18.77;;
8279;SDS011;8335;42.646;23.380;2022-11-14T04:50:17;36.23;;;19.77;;
8279;SDS011;8335;42.646;23.380;2022-11-14T04:52:44;37.30;;;20.47;;
8279;SDS011;8335;42.646;23.380;2022-11-14T04:55:12;36.00;;;19.23;;
8279;SDS011;8335;42.646;23.380;2022-11-14T04:57:39;38.73;;;20.37;;
8279;SDS011;8335;42.646;23.380;2022-11-14T05:00:06;36.77;;;19.80;;
8279;SDS011;8335;42.646;23.380;2022-11-14T05:02:34;37.53;;;19.93;;
8279;SDS011;8335;42.646;23.380;2022-11-14T05:05:01;32.77;;;17.13;;
8279;SDS011;8335;42.646;23.380;2022-11-14T05:07:27;28.77;;;16.37;;
8279;SDS011;8335;42.646;23.380;2022-11-14T05:09:54;28.57;;;16.43;;
8279;SDS011;8335;42.646;23.380;2022-11-14T05:12:22;33.20;;;16.37;;
8279;SDS011;8335;42.646;23.380;2022-11-14T05:14:49;35.27;;;15.90;;
8279;SDS011;8335;42.646;23.380;2022-11-14T05:17:16;34.33;;;17.40;;
8279;SDS011;8335;42.646;23.380;2022-11-14T05:19:42;37.13;;;17.80;;
8279;SDS011;8335;42.646;23.380;2022-11-14T05:22:09;38.47;;;17.23;;
8279;SDS011;8335;42.646;23.380;2022-11-14T05:24:36;34.77;;;17.40;;
8279;SDS011;8335;42.646;23.380;2022-11-14T05:27:02;44.53;;;20.10;;
8279;SDS011;8335;42.646;23.380;2022-11-14T05:29:31;56.10;;;21.77;;
8279;SDS011;8335;42.646;23.380;2022-11-14T05:31:57;60.53;;;23.67;;
8279;SDS011;8335;42.646;23.380;2022-11-14T05:34:25;69.27;;;22.60;;
8279;SDS011;8335;42.646;23.380;2022-11-14T05:36:52;133.67;;;25.10;;
8279;SDS011;8335;42.646;23.380;2022-11-14T05:39:19;141.20;;;25.17;;
8279;SDS011;8335;42.646;23.380;2022-11-14T05:41:45;166.87;;;25.90;;
8279;SDS011;8335;42.646;23.380;2022-11-14T05:44:12;65.17;;;25.17;;
8279;SDS011;8335;42.646;23.380;2022-11-14T05:46:40;88.53;;;27.00;;
8279;SDS011;8335;42.646;23.380;2022-11-14T05:49:07;59.20;;;24.70;;
8279;SDS011;8335;42.646;23.380;2022-11-14T05:51:34;58.17;;;25.20;;
8279;SDS011;8335;42.646;23.380;2022-11-14T05:54:00;92.30;;;28.40;;
8279;SDS011;8335;42.646;23.380;2022-11-14T05:56:27;104.13;;;26.50;;
8279;SDS011;8335;42.646;23.380;2022-11-14T05:58:54;124.07;;;27.10;;
8279;SDS011;8335;42.646;23.380;2022-11-14T06:01:21;134.00;;;26.17;;
8279;SDS011;8335;42.646;23.380;2022-11-14T06:03:49;88.70;;;24.93;;
8279;SDS011;8335;42.646;23.380;2022-11-14T06:06:16;67.27;;;21.73;;
8279;SDS011;8335;42.646;23.380;2022-11-14T06:08:44;65.93;;;20.77;;
8279;SDS011;8335;42.646;23.380;2022-11-14T06:11:12;73.97;;;20.93;;
8279;SDS011;8335;42.646;23.380;2022-11-14T06:13:40;47.40;;;18.37;;
8279;SDS011;8335;42.646;23.380;2022-11-14T06:16:09;52.40;;;19.80;;
8279;SDS011;8335;42.646;23.380;2022-11-14T06:18:37;44.47;;;18.20;;
8279;SDS011;8335;42.646;23.380;2022-11-14T06:21:06;86.60;;;22.67;;
8279;SDS011;8335;42.646;23.380;2022-11-14T06:23:36;47.10;;;19.37;;
8279;SDS011;8335;42.646;23.380;2022-11-14T06:26:03;55.23;;;21.53;;
8279;SDS011;8335;42.646;23.380;2022-11-14T06:28:31;50.53;;;19.53;;
8279;SDS011;8335;42.646;23.380;2022-11-14T06:30:59;46.93;;;19.00;;
8279;SDS011;8335;42.646;23.380;2022-11-14T06:33:27;40.67;;;18.43;;
8279;SDS011;8335;42.646;23.380;2022-11-14T06:35:58;37.70;;;18.50;;
8279;SDS011;8335;42.646;23.380;2022-11-14T06:38:29;37.13;;;18.37;;
8279;SDS011;8335;42.646;23.380;2022-11-14T06:41:00;32.50;;;16.60;;
8279;SDS011;8335;42.646;23.380;2022-11-14T06:43:30;36.27;;;17.47;;
8279;SDS011;8335;42.646;23.380;2022-11-14T06:45:57;32.27;;;17.03;;
8279;SDS011;8335;42.646;23.380;2022-11-14T06:48:24;31.47;;;16.17;;
8279;SDS011;8335;42.646;23.380;2022-11-14T06:50:51;30.53;;;16.13;;
8279;SDS011;8335;42.646;23.380;2022-11-14T06:53:19;28.83;;;16.13;;
8279;SDS011;8335;42.646;23.380;2022-11-14T06:55:52;28.93;;;16.07;;
8279;SDS011;8335;42.646;23.380;2022-11-14T06:58:24;28.27;;;16.20;;
8279;SDS011;8335;42.646;23.380;2022-11-14T07:00:52;31.70;;;16.53;;
8279;SDS011;8335;42.646;23.380;2022-11-14T07:03:18;29.60;;;16.50;;
8279;SDS011;8335;42.646;23.380;2022-11-14T07:05:45;29.87;;;16.30;;
8279;SDS011;8335;42.646;23.380;2022-11-14T07:08:12;28.03;;;15.43;;
8279;SDS011;8335;42.646;23.380;2022-11-14T07:10:39;32.53;;;18.00;;
8279;SDS011;8335;42.646;23.380;2022-11-14T07:13:07;31.80;;;17.07;;
8279;SDS011;8335;42.646;23.380;2022-11-14T07:15:35;33.43;;;17.83;;
8279;SDS011;8335;42.646;23.380;2022-11-14T07:18:02;34.33;;;17.93;;
8279;SDS011;8335;42.646;23.380;2022-11-14T07:20:29;38.63;;;17.87;;
8279;SDS011;8335;42.646;23.380;2022-11-14T07:22:56;36.43;;;18.10;;
8279;SDS011;8335;42.646;23.380;2022-11-14T07:25:22;36.77;;;18.93;;
8279;SDS011;8335;42.646;23.380;2022-11-14T07:27:49;40.87;;;19.33;;
8279;SDS011;8335;42.646;23.380;2022-11-14T07:30:17;36.07;;;19.00;;
8279;SDS011;8335;42.646;23.380;2022-11-14T07:32:44;44.30;;;19.67;;
8279;SDS011;8335;42.646;23.380;2022-11-14T07:35:11;36.43;;;18.70;;
8279;SDS011;8335;42.646;23.380;2022-11-14T07:37:38;36.80;;;19.57;;
8279;SDS011;8335;42.646;23.380;2022-11-14T07:40:05;36.80;;;19.63;;
8279;SDS011;8335;42.646;23.380;2022-11-14T07:42:32;36.73;;;20.43;;
8279;SDS011;8335;42.646;23.380;2022-11-14T07:44:59;35.47;;;18.87;;
8279;SDS011;8335;42.646;23.380;2022-11-14T07:47:27;39.90;;;20.60;;
8279;SDS011;8335;42.646;23.380;2022-11-14T07:49:54;41.43;;;19.73;;
8279;SDS011;8335;42.646;23.380;2022-11-14T07:52:21;35.60;;;19.67;;
8279;SDS011;8335;42.646;23.380;2022-11-14T07:54:47;38.00;;;21.13;;
8279;SDS011;8335;42.646;23.380;2022-11-14T07:57:14;41.50;;;21.53;;
8279;SDS011;8335;42.646;23.380;2022-11-14T07:59:41;33.73;;;19.27;;
8279;SDS011;8335;42.646;23.380;2022-11-14T08:02:09;39.80;;;20.67;;
8279;SDS011;8335;42.646;23.380;2022-11-14T08:04:40;35.50;;;19.70;;
8279;SDS011;8335;42.646;23.380;2022-11-14T08:07:06;36.63;;;19.87;;
8279;SDS011;8335;42.646;23.380;2022-11-14T08:09:33;37.17;;;20.93;;
8279;SDS011;8335;42.646;23.380;2022-11-14T08:12:00;34.47;;;19.73;;
8279;SDS011;8335;42.646;23.380;2022-11-14T08:14:27;34.83;;;20.00;;
8279;SDS011;8335;42.646;23.380;2022-11-14T08:16:54;36.53;;;20.67;;
8279;SDS011;8335;42.646;23.380;2022-11-14T08:19:21;39.00;;;21.63;;
8279;SDS011;8335;42.646;23.380;2022-11-14T08:21:49;34.27;;;20.60;;
8279;SDS011;8335;42.646;23.380;2022-11-14T08:24:15;35.67;;;20.57;;
8279;SDS011;8335;42.646;23.380;2022-11-14T08:26:42;40.03;;;20.87;;
8279;SDS011;8335;42.646;23.380;2022-11-14T08:29:09;33.63;;;19.23;;
8279;SDS011;8335;42.646;23.380;2022-11-14T08:31:36;34.57;;;19.77;;
8279;SDS011;8335;42.646;23.380;2022-11-14T08:34:02;32.63;;;19.43;;
8279;SDS011;8335;42.646;23.380;2022-11-14T08:36:29;31.97;;;19.67;;
8279;SDS011;8335;42.646;23.380;2022-11-14T08:38:57;31.17;;;17.83;;
8279;SDS011;8335;42.646;23.380;2022-11-14T08:41:24;32.27;;;19.43;;
8279;SDS011;8335;42.646;23.380;2022-11-14T08:43:51;33.57;;;19.70;;
8279;SDS011;8335;42.646;23.380;2022-11-14T08:46:17;37.27;;;21.17;;
8279;SDS011;8335;42.646;23.380;2022-11-14T08:48:44;37.00;;;20.33;;
8279;SDS011;8335;42.646;23.380;2022-11-14T08:51:11;34.30;;;20.33;;
8279;SDS011;8335;42.646;23.380;2022-11-14T08:53:38;37.60;;;20.60;;
8279;SDS011;8335;42.646;23.380;2022-11-14T08:56:07;39.97;;;22.10;;
8279;SDS011;8335;42.646;23.380;2022-11-14T08:58:34;36.20;;;21.80;;
8279;SDS011;8335;42.646;23.380;2022-11-14T09:01:01;44.50;;;23.43;;
8279;SDS011;8335;42.646;23.380;2022-11-14T09:03:30;41.13;;;23.10;;
8279;SDS011;8335;42.646;23.380;2022-11-14T09:05:57;45.13;;;22.73;;
8279;SDS011;8335;42.646;23.380;2022-11-14T09:08:24;39.67;;;22.70;;
8279;SDS011;8335;42.646;23.380;2022-11-14T09:10:51;40.47;;;23.27;;
8279;SDS011;8335;42.646;23.380;2022-11-14T09:13:19;40.23;;;22.30;;
8279;SDS011;8335;42.646;23.380;2022-11-14T09:15:46;44.20;;;23.10;;
8279;SDS011;8335;42.646;23.380;2022-11-14T09:18:13;50.93;;;24.30;;
8279;SDS011;8335;42.646;23.380;2022-11-14T09:20:40;41.87;;;23.60;;
8279;SDS011;8335;42.646;23.380;2022-11-14T09:23:08;42.57;;;23.20;;
8279;SDS011;8335;42.646;23.380;2022-11-14T09:25:34;36.77;;;21.17;;
8279;SDS011;8335;42.646;23.380;2022-11-14T09:28:03;38.57;;;22.80;;
8279;SDS011;8335;42.646;23.380;2022-11-14T09:30:32;37.37;;;22.00;;
8279;SDS011;8335;42.646;23.380;2022-11-14T09:33:00;39.17;;;22.73;;
8279;SDS011;8335;42.646;23.380;2022-11-14T09:35:27;36.70;;;21.00;;
8279;SDS011;8335;42.646;23.380;2022-11-14T09:37:58;37.77;;;22.00;;
8279;SDS011;8335;42.646;23.380;2022-11-14T09:40:26;41.00;;;21.90;;
8279;SDS011;8335;42.646;23.380;2022-11-14T09:42:59;38.67;;;22.10;;
8279;SDS011;8335;42.646;23.380;2022-11-14T09:45:37;40.27;;;22.20;;
8279;SDS011;8335;42.646;23.380;2022-11-14T09:48:12;40.43;;;22.10;;
8279;SDS011;8335;42.646;23.380;2022-11-14T09:50:42;38.93;;;21.90;;
8279;SDS011;8335;42.646;23.380;2022-11-14T09:53:13;42.67;;;22.83;;
8279;SDS011;8335;42.646;23.380;2022-11-14T09:55:48;40.57;;;21.93;;
8279;SDS011;8335;42.646;23.380;2022-11-14T09:58:17;37.87;;;22.07;;
8279;SDS011;8335;42.646;23.380;2022-11-14T10:00:48;40.10;;;22.20;;
8279;SDS011;8335;42.646;23.380;2022-11-14T10:03:21;38.60;;;22.70;;
8279;SDS011;8335;42.646;23.380;2022-11-14T10:05:59;37.27;;;21.13;;
8279;SDS011;8335;42.646;23.380;2022-11-14T10:08:42;35.10;;;20.17;;
8279;SDS011;8335;42.646;23.380;2022-11-14T10:11:21;32.63;;;21.07;;
8279;SDS011;8335;42.646;23.380;2022-11-14T10:13:57;36.30;;;21.13;;
8279;SDS011;8335;42.646;23.380;2022-11-14T10:16:49;31.33;;;19.70;;
8279;SDS011;8335;42.646;23.380;2022-11-14T10:19:26;36.80;;;21.50;;
8279;SDS011;8335;42.646;23.380;2022-11-14T10:22:03;33.70;;;20.87;;
8279;SDS011;8335;42.646;23.380;2022-11-14T10:24:44;42.43;;;22.17;;
8279;SDS011;8335;42.646;23.380;2022-11-14T10:27:22;34.57;;;21.93;;
8279;SDS011;8335;42.646;23.380;2022-11-14T10:30:00;33.80;;;20.73;;
8279;SDS011;8335;42.646;23.380;2022-11-14T10:32:44;39.47;;;21.53;;
8279;SDS011;8335;42.646;23.380;2022-11-14T10:35:22;31.37;;;21.10;;
8279;SDS011;8335;42.646;23.380;2022-11-14T10:37:56;32.80;;;21.27;;
8279;SDS011;8335;42.646;23.380;2022-11-14T10:40:28;35.07;;;21.90;;
8279;SDS011;8335;42.646;23.380;2022-11-14T10:43:01;32.17;;;20.57;;
8279;SDS011;8335;42.646;23.380;2022-11-14T10:45:33;35.97;;;21.93;;
8279;SDS011;8335;42.646;23.380;2022-11-14T10:48:07;36.57;;;22.47;;
8279;SDS011;8335;42.646;23.380;2022-11-14T10:50:39;38.60;;;23.50;;
8279;SDS011;8335;42.646;23.380;2022-11-14T10:53:15;40.27;;;22.60;;
8279;SDS011;8335;42.646;23.380;2022-11-14T10:55:49;39.37;;;22.80;;
8279;SDS011;8335;42.646;23.380;2022-11-14T10:58:16;38.87;;;22.87;;
8279;SDS011;8335;42.646;23.380;2022-11-14T11:00:43;39.00;;;22.60;;
8279;SDS011;8335;42.646;23.380;2022-11-14T11:03:11;36.97;;;23.27;;
8279;SDS011;8335;42.646;23.380;2022-11-14T11:05:45;36.57;;;23.67;;
8279;SDS011;8335;42.646;23.380;2022-11-14T11:08:18;36.80;;;22.57;;
8279;SDS011;8335;42.646;23.380;2022-11-14T11:11:03;43.07;;;24.33;;
8279;SDS011;8335;42.646;23.380;2022-11-14T11:13:50;39.57;;;24.47;;
8279;SDS011;8335;42.646;23.380;2022-11-14T11:16:21;42.03;;;23.40;;
8279;SDS011;8335;42.646;23.380;2022-11-14T11:18:50;34.63;;;22.50;;
8279;SDS011;8335;42.646;23.380;2022-11-14T11:21:17;37.33;;;23.17;;
8279;SDS011;8335;42.646;23.380;2022-11-14T11:23:49;39.30;;;23.07;;
8279;SDS011;8335;42.646;23.380;2022-11-14T11:26:18;39.60;;;22.67;;
8279;SDS011;8335;42.646;23.380;2022-11-14T11:29:00;35.80;;;22.93;;
8279;SDS011;8335;42.646;23.380;2022-11-14T11:31:39;40.93;;;22.70;;
8279;SDS011;8335;42.646;23.380;2022-11-14T11:34:16;37.67;;;22.63;;
8279;SDS011;8335;42.646;23.380;2022-11-14T11:36:48;41.00;;;24.17;;
8279;SDS011;8335;42.646;23.380;2022-11-14T11:39:20;36.13;;;23.17;;
8279;SDS011;8335;42.646;23.380;2022-11-14T11:41:50;44.83;;;24.10;;
8279;SDS011;8335;42.646;23.380;2022-11-14T11:44:20;43.37;;;24.63;;
8279;SDS011;8335;42.646;23.380;2022-11-14T11:46:54;45.57;;;25.03;;
8279;SDS011;8335;42.646;23.380;2022-11-14T11:49:31;39.73;;;25.00;;
8279;SDS011;8335;42.646;23.380;2022-11-14T11:52:04;39.93;;;23.77;;
8279;SDS011;8335;42.646;23.380;2022-11-14T11:54:42;44.47;;;26.23;;
8279;SDS011;8335;42.646;23.380;2022-11-14T11:57:16;48.07;;;27.33;;
8279;SDS011;8335;42.646;23.380;2022-11-14T11:59:47;48.77;;;27.70;;
8279;SDS011;8335;42.646;23.380;2022-11-14T12:02:19;48.80;;;29.00;;
8279;SDS011;8335;42.646;23.380;2022-11-14T12:04:50;47.37;;;28.90;;
8279;SDS011;8335;42.646;23.380;2022-11-14T12:07:18;44.37;;;27.23;;
8279;SDS011;8335;42.646;23.380;2022-11-14T12:09:47;51.47;;;29.43;;
8279;SDS011;8335;42.646;23.380;2022-11-14T12:12:19;50.63;;;28.63;;
8279;SDS011;8335;42.646;23.380;2022-11-14T12:15:02;47.23;;;28.80;;
8279;SDS011;8335;42.646;23.380;2022-11-14T12:26:43;50.00;;;29.70;;
8279;SDS011;8335;42.646;23.380;2022-11-14T12:29:31;54.90;;;30.80;;
8279;SDS011;8335;42.646;23.380;2022-11-14T12:32:14;52.97;;;29.83;;
8279;SDS011;8335;42.646;23.380;2022-11-14T12:34:50;54.27;;;29.03;;
8279;SDS011;8335;42.646;23.380;2022-11-14T12:37:19;52.97;;;30.67;;
8279;SDS011;8335;42.646;23.380;2022-11-14T12:39:55;54.50;;;30.30;;
8279;SDS011;8335;42.646;23.380;2022-11-14T12:42:24;53.57;;;30.47;;
8279;SDS011;8335;42.646;23.380;2022-11-14T12:44:50;52.60;;;30.70;;
8279;SDS011;8335;42.646;23.380;2022-11-14T12:47:18;54.13;;;30.87;;
8279;SDS011;8335;42.646;23.380;2022-11-14T12:50:00;50.13;;;30.17;;
8279;SDS011;8335;42.646;23.380;2022-11-14T12:52:43;50.37;;;28.87;;
8279;SDS011;8335;42.646;23.380;2022-11-14T13:01:31;56.97;;;31.07;;
8279;SDS011;8335;42.646;23.380;2022-11-14T13:04:15;61.43;;;31.93;;
8279;SDS011;8335;42.646;23.380;2022-11-14T13:06:52;59.07;;;31.60;;
8279;SDS011;8335;42.646;23.380;2022-11-14T13:09:33;58.47;;;30.90;;
8279;SDS011;8335;42.646;23.380;2022-11-14T13:12:24;53.17;;;30.37;;
8279;SDS011;8335;42.646;23.380;2022-11-14T13:15:21;56.00;;;31.53;;
8279;SDS011;8335;42.646;23.380;2022-11-14T13:18:20;59.43;;;31.70;;
8279;SDS011;8335;42.646;23.380;2022-11-14T13:21:15;53.93;;;31.50;;
8279;SDS011;8335;42.646;23.380;2022-11-14T13:24:01;57.53;;;32.70;;
8279;SDS011;8335;42.646;23.380;2022-11-14T13:26:40;57.47;;;31.73;;
8279;SDS011;8335;42.646;23.380;2022-11-14T13:41:22;59.43;;;31.40;;
8279;SDS011;8335;42.646;23.380;2022-11-14T13:44:06;54.60;;;31.33;;
8279;SDS011;8335;42.646;23.380;2022-11-14T13:46:50;55.47;;;31.43;;
8279;SDS011;8335;42.646;23.380;2022-11-14T13:49:31;48.50;;;29.50;;
8279;SDS011;8335;42.646;23.380;2022-11-14T13:52:13;60.90;;;31.30;;
8279;SDS011;8335;42.646;23.380;2022-11-14T13:54:44;58.17;;;30.80;;
8279;SDS011;8335;42.646;23.380;2022-11-14T13:57:13;58.17;;;30.90;;
8279;SDS011;8335;42.646;23.380;2022-11-14T13:59:50;63.00;;;31.97;;
8279;SDS011;8335;42.646;23.380;2022-11-14T14:02:40;56.73;;;30.47;;
8279;SDS011;8335;42.646;23.380;2022-11-14T14:05:20;58.87;;;32.60;;
8279;SDS011;8335;42.646;23.380;2022-11-14T14:08:02;56.77;;;31.73;;
8279;SDS011;8335;42.646;23.380;2022-11-14T14:10:40;56.67;;;31.27;;
8279;SDS011;8335;42.646;23.380;2022-11-14T14:13:17;60.70;;;31.07;;
8279;SDS011;8335;42.646;23.380;2022-11-14T14:15:55;56.63;;;30.33;;
8279;SDS011;8335;42.646;23.380;2022-11-14T14:18:33;57.03;;;32.13;;
8279;SDS011;8335;42.646;23.380;2022-11-14T14:21:12;64.13;;;32.23;;
8279;SDS011;8335;42.646;23.380;2022-11-14T14:23:45;68.40;;;32.90;;
8279;SDS011;8335;42.646;23.380;2022-11-14T14:26:23;58.53;;;31.53;;
8279;SDS011;8335;42.646;23.380;2022-11-14T14:29:00;63.20;;;31.50;;
8279;SDS011;8335;42.646;23.380;2022-11-14T14:31:34;60.63;;;32.27;;
8279;SDS011;8335;42.646;23.380;2022-11-14T14:34:17;61.67;;;29.57;;
8279;SDS011;8335;42.646;23.380;2022-11-14T14:36:50;59.97;;;30.57;;
8279;SDS011;8335;42.646;23.380;2022-11-14T14:39:19;63.07;;;31.97;;
8279;SDS011;8335;42.646;23.380;2022-11-14T14:41:47;61.70;;;31.00;;
8279;SDS011;8335;42.646;23.380;2022-11-14T14:44:22;60.87;;;31.50;;
8279;SDS011;8335;42.646;23.380;2022-11-14T14:46:52;62.87;;;32.23;;
8279;SDS011;8335;42.646;23.380;2022-11-14T14:49:20;58.43;;;30.80;;
8279;SDS011;8335;42.646;23.380;2022-11-14T14:51:48;64.00;;;31.17;;
8279;SDS011;8335;42.646;23.380;2022-11-14T14:54:19;60.60;;;30.93;;
8279;SDS011;8335;42.646;23.380;2022-11-14T14:56:53;64.83;;;32.70;;
8279;SDS011;8335;42.646;23.380;2022-11-14T14:59:24;57.40;;;30.50;;
8279;SDS011;8335;42.646;23.380;2022-11-14T15:01:54;57.87;;;31.53;;
8279;SDS011;8335;42.646;23.380;2022-11-14T15:04:22;62.80;;;32.10;;
8279;SDS011;8335;42.646;23.380;2022-11-14T15:06:52;65.57;;;32.03;;
8279;SDS011;8335;42.646;23.380;2022-11-14T15:09:21;63.10;;;31.73;;
8279;SDS011;8335;42.646;23.380;2022-11-14T15:11:50;63.00;;;33.90;;
8279;SDS011;8335;42.646;23.380;2022-11-14T15:14:20;72.93;;;33.57;;
8279;SDS011;8335;42.646;23.380;2022-11-14T15:16:49;66.87;;;32.60;;